sensor_id;sensor_type;location;lat;lon;timestamp;P1;durP1;ratioP1;P2;durP2;ratioP2
14268;SDS011;7218;51.480;7.006;2023-05-07T00:00:39;6.95;;;5.88;;
14268;SDS011;7218;51.480;7.006;2023-05-07T00:03:07;7.00;;;6.13;;
14268;SDS011;7218;51.480;7.006;2023-05-07T00:05:35;6.95;;;6.15;;
14268;SDS011;7218;51.480;7.006;2023-05-07T00:08:02;8.95;;;6.65;;
14268;SDS011;7218;51.480;7.006;2023-05-07T00:10:30;8.60;;;6.78;;
14268;SDS011;7218;51.480;7.006;2023-05-07T00:12:56;7.65;;;6.85;;
14268;SDS011;7218;51.480;7.006;2023-05-07T00:15:22;7.60;;;6.88;;
14268;SDS011;7218;51.480;7.006;2023-05-07T00:17:49;7.70;;;6.90;;
14268;SDS011;7218;51.480;7.006;2023-05-07T00:20:16;7.63;;;6.82;;
14268;SDS011;7218;51.480;7.006;2023-05-07T00:22:43;10.18;;;7.25;;
14268;SDS011;7218;51.480;7.006;2023-05-07T00:25:10;7.93;;;7.13;;
14268;SDS011;7218;51.480;7.006;2023-05-07T00:27:36;7.75;;;6.88;;
14268;SDS011;7218;51.480;7.006;2023-05-07T00:30:03;8.48;;;6.80;;
14268;SDS011;7218;51.480;7.006;2023-05-07T00:32:30;9.90;;;7.05;;
14268;SDS011;7218;51.480;7.006;2023-05-07T00:34:56;9.55;;;7.53;;
14268;SDS011;7218;51.480;7.006;2023-05-07T00:37:23;8.93;;;7.68;;
14268;SDS011;7218;51.480;7.006;2023-05-07T00:39:51;9.30;;;7.00;;
14268;SDS011;7218;51.480;7.006;2023-05-07T00:42:17;9.70;;;7.28;;
14268;SDS011;7218;51.480;7.006;2023-05-07T00:44:43;10.18;;;7.10;;
14268;SDS011;7218;51.480;7.006;2023-05-07T00:47:10;9.63;;;7.60;;
14268;SDS011;7218;51.480;7.006;2023-05-07T00:49:38;8.63;;;7.82;;
14268;SDS011;7218;51.480;7.006;2023-05-07T00:52:06;9.23;;;8.23;;
14268;SDS011;7218;51.480;7.006;2023-05-07T00:54:34;10.07;;;8.82;;
14268;SDS011;7218;51.480;7.006;2023-05-07T00:57:03;11.00;;;9.38;;
14268;SDS011;7218;51.480;7.006;2023-05-07T00:59:29;11.15;;;10.05;;
14268;SDS011;7218;51.480;7.006;2023-05-07T01:01:57;12.10;;;10.73;;
14268;SDS011;7218;51.480;7.006;2023-05-07T01:04:24;11.38;;;10.23;;
14268;SDS011;7218;51.480;7.006;2023-05-07T01:06:50;11.00;;;9.85;;
14268;SDS011;7218;51.480;7.006;2023-05-07T01:09:18;10.80;;;9.70;;
14268;SDS011;7218;51.480;7.006;2023-05-07T01:11:46;12.60;;;9.55;;
14268;SDS011;7218;51.480;7.006;2023-05-07T01:14:14;11.20;;;10.10;;
14268;SDS011;7218;51.480;7.006;2023-05-07T01:16:41;11.73;;;10.52;;
14268;SDS011;7218;51.480;7.006;2023-05-07T01:19:07;12.20;;;9.80;;
14268;SDS011;7218;51.480;7.006;2023-05-07T01:21:35;12.07;;;10.82;;
14268;SDS011;7218;51.480;7.006;2023-05-07T01:24:05;12.98;;;10.73;;
14268;SDS011;7218;51.480;7.006;2023-05-07T01:26:32;13.73;;;10.93;;
14268;SDS011;7218;51.480;7.006;2023-05-07T01:28:58;12.18;;;10.98;;
14268;SDS011;7218;51.480;7.006;2023-05-07T01:31:25;10.82;;;9.73;;
14268;SDS011;7218;51.480;7.006;2023-05-07T01:33:51;10.60;;;9.50;;
14268;SDS011;7218;51.480;7.006;2023-05-07T01:36:19;9.90;;;8.88;;
14268;SDS011;7218;51.480;7.006;2023-05-07T01:38:48;10.48;;;9.13;;
14268;SDS011;7218;51.480;7.006;2023-05-07T01:41:18;10.50;;;8.48;;
14268;SDS011;7218;51.480;7.006;2023-05-07T01:43:46;9.48;;;8.57;;
14268;SDS011;7218;51.480;7.006;2023-05-07T01:46:13;10.45;;;8.95;;
14268;SDS011;7218;51.480;7.006;2023-05-07T01:48:41;9.70;;;8.70;;
14268;SDS011;7218;51.480;7.006;2023-05-07T01:51:11;11.45;;;8.60;;
14268;SDS011;7218;51.480;7.006;2023-05-07T01:53:37;10.07;;;8.88;;
14268;SDS011;7218;51.480;7.006;2023-05-07T01:56:05;9.15;;;8.20;;
14268;SDS011;7218;51.480;7.006;2023-05-07T01:58:34;11.82;;;9.13;;
14268;SDS011;7218;51.480;7.006;2023-05-07T02:01:00;11.93;;;8.93;;
14268;SDS011;7218;51.480;7.006;2023-05-07T02:03:27;10.07;;;8.65;;
14268;SDS011;7218;51.480;7.006;2023-05-07T02:05:53;11.48;;;9.05;;
14268;SDS011;7218;51.480;7.006;2023-05-07T02:08:20;11.05;;;9.50;;
14268;SDS011;7218;51.480;7.006;2023-05-07T02:10:46;10.63;;;9.05;;
14268;SDS011;7218;51.480;7.006;2023-05-07T02:13:12;10.20;;;9.13;;
14268;SDS011;7218;51.480;7.006;2023-05-07T02:15:40;12.68;;;9.80;;
14268;SDS011;7218;51.480;7.006;2023-05-07T02:18:07;11.25;;;9.90;;
14268;SDS011;7218;51.480;7.006;2023-05-07T02:20:35;12.10;;;10.75;;
14268;SDS011;7218;51.480;7.006;2023-05-07T02:23:01;12.80;;;11.55;;
14268;SDS011;7218;51.480;7.006;2023-05-07T02:25:28;12.18;;;10.98;;
14268;SDS011;7218;51.480;7.006;2023-05-07T02:27:55;13.70;;;12.30;;
14268;SDS011;7218;51.480;7.006;2023-05-07T02:30:21;15.00;;;12.52;;
14268;SDS011;7218;51.480;7.006;2023-05-07T02:32:49;15.88;;;12.63;;
14268;SDS011;7218;51.480;7.006;2023-05-07T02:35:15;14.95;;;13.35;;
14268;SDS011;7218;51.480;7.006;2023-05-07T02:37:42;15.65;;;13.35;;
14268;SDS011;7218;51.480;7.006;2023-05-07T02:40:09;15.45;;;13.88;;
14268;SDS011;7218;51.480;7.006;2023-05-07T02:42:36;15.07;;;13.48;;
14268;SDS011;7218;51.480;7.006;2023-05-07T02:45:03;15.57;;;13.98;;
14268;SDS011;7218;51.480;7.006;2023-05-07T02:47:30;16.05;;;14.38;;
14268;SDS011;7218;51.480;7.006;2023-05-07T02:49:58;16.52;;;14.82;;
14268;SDS011;7218;51.480;7.006;2023-05-07T02:52:24;18.25;;;16.25;;
14268;SDS011;7218;51.480;7.006;2023-05-07T02:54:51;17.10;;;15.30;;
14268;SDS011;7218;51.480;7.006;2023-05-07T02:57:17;16.45;;;14.85;;
14268;SDS011;7218;51.480;7.006;2023-05-07T02:59:44;17.85;;;16.00;;
14268;SDS011;7218;51.480;7.006;2023-05-07T03:02:10;17.95;;;15.95;;
14268;SDS011;7218;51.480;7.006;2023-05-07T03:04:37;18.02;;;15.75;;
14268;SDS011;7218;51.480;7.006;2023-05-07T03:07:06;18.38;;;16.58;;
14268;SDS011;7218;51.480;7.006;2023-05-07T03:09:32;18.50;;;16.67;;
14268;SDS011;7218;51.480;7.006;2023-05-07T03:11:59;17.77;;;15.98;;
14268;SDS011;7218;51.480;7.006;2023-05-07T03:14:26;19.00;;;17.00;;
14268;SDS011;7218;51.480;7.006;2023-05-07T03:16:53;18.48;;;16.63;;
14268;SDS011;7218;51.480;7.006;2023-05-07T03:19:19;19.25;;;17.10;;
14268;SDS011;7218;51.480;7.006;2023-05-07T03:21:45;18.10;;;16.20;;
14268;SDS011;7218;51.480;7.006;2023-05-07T03:24:13;18.73;;;16.52;;
14268;SDS011;7218;51.480;7.006;2023-05-07T03:26:40;19.42;;;17.58;;
14268;SDS011;7218;51.480;7.006;2023-05-07T03:29:06;20.20;;;17.77;;
14268;SDS011;7218;51.480;7.006;2023-05-07T03:31:32;19.20;;;17.20;;
14268;SDS011;7218;51.480;7.006;2023-05-07T03:33:59;18.80;;;16.88;;
14268;SDS011;7218;51.480;7.006;2023-05-07T03:36:25;17.90;;;16.20;;
14268;SDS011;7218;51.480;7.006;2023-05-07T03:38:52;18.63;;;16.13;;
14268;SDS011;7218;51.480;7.006;2023-05-07T03:41:20;18.67;;;16.70;;
14268;SDS011;7218;51.480;7.006;2023-05-07T03:43:47;19.92;;;17.92;;
14268;SDS011;7218;51.480;7.006;2023-05-07T03:46:13;19.25;;;17.33;;
14268;SDS011;7218;51.480;7.006;2023-05-07T03:48:40;21.35;;;17.38;;
14268;SDS011;7218;51.480;7.006;2023-05-07T03:51:06;19.63;;;17.48;;
14268;SDS011;7218;51.480;7.006;2023-05-07T03:53:32;19.65;;;17.63;;
14268;SDS011;7218;51.480;7.006;2023-05-07T03:55:59;18.80;;;16.73;;
14268;SDS011;7218;51.480;7.006;2023-05-07T03:58:27;19.70;;;17.70;;
14268;SDS011;7218;51.480;7.006;2023-05-07T04:00:53;19.95;;;18.05;;
14268;SDS011;7218;51.480;7.006;2023-05-07T04:03:20;20.20;;;18.05;;
14268;SDS011;7218;51.480;7.006;2023-05-07T04:05:46;20.38;;;18.38;;
14268;SDS011;7218;51.480;7.006;2023-05-07T04:08:13;19.70;;;17.65;;
14268;SDS011;7218;51.480;7.006;2023-05-07T04:10:39;20.80;;;18.05;;
14268;SDS011;7218;51.480;7.006;2023-05-07T04:13:05;20.50;;;18.50;;
14268;SDS011;7218;51.480;7.006;2023-05-07T04:15:33;19.60;;;17.67;;
14268;SDS011;7218;51.480;7.006;2023-05-07T04:18:01;20.65;;;18.63;;
14268;SDS011;7218;51.480;7.006;2023-05-07T04:20:28;19.20;;;17.40;;
14268;SDS011;7218;51.480;7.006;2023-05-07T04:22:54;20.60;;;18.50;;
14268;SDS011;7218;51.480;7.006;2023-05-07T04:25:21;22.20;;;19.90;;
14268;SDS011;7218;51.480;7.006;2023-05-07T04:27:51;21.48;;;19.42;;
14268;SDS011;7218;51.480;7.006;2023-05-07T04:30:18;22.77;;;20.58;;
14268;SDS011;7218;51.480;7.006;2023-05-07T04:32:46;22.15;;;20.00;;
14268;SDS011;7218;51.480;7.006;2023-05-07T04:35:13;21.20;;;19.02;;
14268;SDS011;7218;51.480;7.006;2023-05-07T04:37:39;21.60;;;19.40;;
14268;SDS011;7218;51.480;7.006;2023-05-07T04:40:06;21.52;;;19.40;;
14268;SDS011;7218;51.480;7.006;2023-05-07T04:42:33;22.60;;;20.27;;
14268;SDS011;7218;51.480;7.006;2023-05-07T04:45:01;21.83;;;19.52;;
14268;SDS011;7218;51.480;7.006;2023-05-07T04:47:27;23.02;;;20.48;;
14268;SDS011;7218;51.480;7.006;2023-05-07T04:49:55;23.23;;;20.73;;
14268;SDS011;7218;51.480;7.006;2023-05-07T04:52:23;23.75;;;20.90;;
14268;SDS011;7218;51.480;7.006;2023-05-07T04:54:49;23.13;;;20.73;;
14268;SDS011;7218;51.480;7.006;2023-05-07T04:57:16;23.67;;;21.17;;
14268;SDS011;7218;51.480;7.006;2023-05-07T04:59:42;22.95;;;20.65;;
14268;SDS011;7218;51.480;7.006;2023-05-07T05:02:09;22.65;;;20.30;;
14268;SDS011;7218;51.480;7.006;2023-05-07T05:04:36;21.77;;;19.50;;
14268;SDS011;7218;51.480;7.006;2023-05-07T05:07:04;22.15;;;19.95;;
14268;SDS011;7218;51.480;7.006;2023-05-07T05:09:30;20.55;;;18.48;;
14268;SDS011;7218;51.480;7.006;2023-05-07T05:11:57;20.83;;;18.75;;
14268;SDS011;7218;51.480;7.006;2023-05-07T05:14:23;20.60;;;18.52;;
14268;SDS011;7218;51.480;7.006;2023-05-07T05:16:50;21.27;;;19.20;;
14268;SDS011;7218;51.480;7.006;2023-05-07T05:19:16;21.25;;;18.98;;
14268;SDS011;7218;51.480;7.006;2023-05-07T05:21:43;20.98;;;18.88;;
14268;SDS011;7218;51.480;7.006;2023-05-07T05:24:11;20.08;;;17.98;;
14268;SDS011;7218;51.480;7.006;2023-05-07T05:26:37;19.40;;;17.50;;
14268;SDS011;7218;51.480;7.006;2023-05-07T05:29:03;20.27;;;18.15;;
14268;SDS011;7218;51.480;7.006;2023-05-07T05:31:30;19.88;;;17.83;;
14268;SDS011;7218;51.480;7.006;2023-05-07T05:33:57;22.83;;;17.73;;
14268;SDS011;7218;51.480;7.006;2023-05-07T05:36:23;20.77;;;17.52;;
14268;SDS011;7218;51.480;7.006;2023-05-07T05:38:50;19.33;;;17.33;;
14268;SDS011;7218;51.480;7.006;2023-05-07T05:41:17;19.30;;;17.38;;
14268;SDS011;7218;51.480;7.006;2023-05-07T05:43:44;20.23;;;17.25;;
14268;SDS011;7218;51.480;7.006;2023-05-07T05:46:10;18.73;;;16.83;;
14268;SDS011;7218;51.480;7.006;2023-05-07T05:48:37;18.33;;;16.50;;
14268;SDS011;7218;51.480;7.006;2023-05-07T05:51:03;19.25;;;17.33;;
14268;SDS011;7218;51.480;7.006;2023-05-07T05:53:29;18.35;;;16.50;;
14268;SDS011;7218;51.480;7.006;2023-05-07T05:55:56;18.42;;;16.55;;
14268;SDS011;7218;51.480;7.006;2023-05-07T05:58:24;17.58;;;15.85;;
14268;SDS011;7218;51.480;7.006;2023-05-07T06:00:50;16.90;;;15.13;;
14268;SDS011;7218;51.480;7.006;2023-05-07T06:03:18;16.38;;;14.68;;
14268;SDS011;7218;51.480;7.006;2023-05-07T06:05:44;15.20;;;13.68;;
14268;SDS011;7218;51.480;7.006;2023-05-07T06:08:11;18.00;;;15.00;;
14268;SDS011;7218;51.480;7.006;2023-05-07T06:10:37;15.05;;;13.45;;
14268;SDS011;7218;51.480;7.006;2023-05-07T06:13:04;14.75;;;13.25;;
14268;SDS011;7218;51.480;7.006;2023-05-07T06:15:32;13.52;;;12.13;;
14268;SDS011;7218;51.480;7.006;2023-05-07T06:17:58;14.30;;;12.82;;
14268;SDS011;7218;51.480;7.006;2023-05-07T06:20:25;13.45;;;12.15;;
14268;SDS011;7218;51.480;7.006;2023-05-07T06:22:51;13.00;;;11.65;;
14268;SDS011;7218;51.480;7.006;2023-05-07T06:25:18;11.85;;;10.52;;
14268;SDS011;7218;51.480;7.006;2023-05-07T06:27:45;10.77;;;9.68;;
14268;SDS011;7218;51.480;7.006;2023-05-07T06:30:12;10.00;;;9.00;;
14268;SDS011;7218;51.480;7.006;2023-05-07T06:32:39;9.10;;;8.20;;
14268;SDS011;7218;51.480;7.006;2023-05-07T06:35:07;12.18;;;8.15;;
14268;SDS011;7218;51.480;7.006;2023-05-07T06:37:34;10.05;;;7.65;;
14268;SDS011;7218;51.480;7.006;2023-05-07T06:40:03;8.65;;;7.47;;
14268;SDS011;7218;51.480;7.006;2023-05-07T06:42:31;11.35;;;7.10;;
14268;SDS011;7218;51.480;7.006;2023-05-07T06:44:57;7.88;;;6.10;;
14268;SDS011;7218;51.480;7.006;2023-05-07T06:47:23;7.93;;;6.45;;
14268;SDS011;7218;51.480;7.006;2023-05-07T06:49:51;7.75;;;6.38;;
14268;SDS011;7218;51.480;7.006;2023-05-07T06:52:18;8.10;;;5.78;;
14268;SDS011;7218;51.480;7.006;2023-05-07T06:54:44;7.20;;;6.28;;
14268;SDS011;7218;51.480;7.006;2023-05-07T06:57:11;7.70;;;6.18;;
14268;SDS011;7218;51.480;7.006;2023-05-07T06:59:37;6.63;;;5.70;;
14268;SDS011;7218;51.480;7.006;2023-05-07T07:02:03;7.68;;;5.15;;
14268;SDS011;7218;51.480;7.006;2023-05-07T07:04:30;7.18;;;5.50;;
14268;SDS011;7218;51.480;7.006;2023-05-07T07:06:58;6.00;;;5.30;;
14268;SDS011;7218;51.480;7.006;2023-05-07T07:09:24;6.20;;;5.13;;
14268;SDS011;7218;51.480;7.006;2023-05-07T07:11:51;6.70;;;4.70;;
14268;SDS011;7218;51.480;7.006;2023-05-07T07:14:17;5.05;;;4.40;;
14268;SDS011;7218;51.480;7.006;2023-05-07T07:16:44;5.30;;;4.75;;
14268;SDS011;7218;51.480;7.006;2023-05-07T07:19:11;4.55;;;4.03;;
14268;SDS011;7218;51.480;7.006;2023-05-07T07:21:40;5.20;;;4.20;;
14268;SDS011;7218;51.480;7.006;2023-05-07T07:24:08;5.40;;;4.00;;
14268;SDS011;7218;51.480;7.006;2023-05-07T07:26:34;4.75;;;3.78;;
14268;SDS011;7218;51.480;7.006;2023-05-07T07:29:00;4.30;;;3.90;;
14268;SDS011;7218;51.480;7.006;2023-05-07T07:31:27;4.32;;;3.58;;
14268;SDS011;7218;51.480;7.006;2023-05-07T07:33:53;5.90;;;4.00;;
14268;SDS011;7218;51.480;7.006;2023-05-07T07:36:20;3.78;;;3.20;;
14268;SDS011;7218;51.480;7.006;2023-05-07T07:38:46;4.88;;;3.42;;
14268;SDS011;7218;51.480;7.006;2023-05-07T07:41:14;5.47;;;3.63;;
14268;SDS011;7218;51.480;7.006;2023-05-07T07:43:40;3.63;;;3.15;;
14268;SDS011;7218;51.480;7.006;2023-05-07T07:46:07;6.82;;;3.30;;
14268;SDS011;7218;51.480;7.006;2023-05-07T07:48:33;5.40;;;3.17;;
14268;SDS011;7218;51.480;7.006;2023-05-07T07:50:59;5.07;;;3.30;;
14268;SDS011;7218;51.480;7.006;2023-05-07T07:53:26;5.45;;;3.20;;
14268;SDS011;7218;51.480;7.006;2023-05-07T07:55:52;4.50;;;3.22;;
14268;SDS011;7218;51.480;7.006;2023-05-07T07:58:20;4.65;;;3.50;;
14268;SDS011;7218;51.480;7.006;2023-05-07T08:00:47;3.72;;;3.40;;
14268;SDS011;7218;51.480;7.006;2023-05-07T08:03:13;3.63;;;3.33;;
14268;SDS011;7218;51.480;7.006;2023-05-07T08:05:41;4.95;;;3.20;;
14268;SDS011;7218;51.480;7.006;2023-05-07T08:08:08;4.78;;;3.40;;
14268;SDS011;7218;51.480;7.006;2023-05-07T08:10:34;5.47;;;3.17;;
14268;SDS011;7218;51.480;7.006;2023-05-07T08:13:03;4.20;;;2.97;;
14268;SDS011;7218;51.480;7.006;2023-05-07T08:15:31;5.00;;;3.30;;
14268;SDS011;7218;51.480;7.006;2023-05-07T08:17:57;3.65;;;3.17;;
14268;SDS011;7218;51.480;7.006;2023-05-07T08:20:25;4.38;;;2.90;;
14268;SDS011;7218;51.480;7.006;2023-05-07T08:22:51;4.43;;;3.00;;
14268;SDS011;7218;51.480;7.006;2023-05-07T08:25:18;3.00;;;2.72;;
14268;SDS011;7218;51.480;7.006;2023-05-07T08:27:44;4.10;;;2.85;;
14268;SDS011;7218;51.480;7.006;2023-05-07T08:30:12;5.18;;;3.10;;
14268;SDS011;7218;51.480;7.006;2023-05-07T08:32:40;3.33;;;2.83;;
14268;SDS011;7218;51.480;7.006;2023-05-07T08:35:07;28.17;;;24.40;;
14268;SDS011;7218;51.480;7.006;2023-05-07T08:37:34;45.40;;;34.00;;
14268;SDS011;7218;51.480;7.006;2023-05-07T08:40:01;14.13;;;10.52;;
14268;SDS011;7218;51.480;7.006;2023-05-07T08:42:27;18.63;;;9.73;;
14268;SDS011;7218;51.480;7.006;2023-05-07T08:44:55;18.88;;;14.13;;
14268;SDS011;7218;51.480;7.006;2023-05-07T08:47:25;6.65;;;4.57;;
14268;SDS011;7218;51.480;7.006;2023-05-07T08:49:57;7.72;;;6.43;;
14268;SDS011;7218;51.480;7.006;2023-05-07T08:52:24;4.30;;;3.00;;
14268;SDS011;7218;51.480;7.006;2023-05-07T08:54:51;3.88;;;3.00;;
14268;SDS011;7218;51.480;7.006;2023-05-07T08:57:17;6.95;;;3.97;;
14268;SDS011;7218;51.480;7.006;2023-05-07T08:59:44;4.90;;;2.47;;
14268;SDS011;7218;51.480;7.006;2023-05-07T09:02:11;3.83;;;2.53;;
14268;SDS011;7218;51.480;7.006;2023-05-07T09:04:37;3.53;;;2.88;;
14268;SDS011;7218;51.480;7.006;2023-05-07T09:07:05;3.03;;;2.60;;
14268;SDS011;7218;51.480;7.006;2023-05-07T09:09:32;9.73;;;6.90;;
14268;SDS011;7218;51.480;7.006;2023-05-07T09:11:58;2.80;;;2.35;;
14268;SDS011;7218;51.480;7.006;2023-05-07T09:14:25;5.18;;;3.00;;
14268;SDS011;7218;51.480;7.006;2023-05-07T09:16:52;4.03;;;2.83;;
14268;SDS011;7218;51.480;7.006;2023-05-07T09:19:21;3.53;;;2.72;;
14268;SDS011;7218;51.480;7.006;2023-05-07T09:21:48;2.53;;;2.08;;
14268;SDS011;7218;51.480;7.006;2023-05-07T09:24:16;2.72;;;2.50;;
14268;SDS011;7218;51.480;7.006;2023-05-07T09:26:42;9.93;;;6.05;;
14268;SDS011;7218;51.480;7.006;2023-05-07T09:29:09;11.80;;;6.80;;
14268;SDS011;7218;51.480;7.006;2023-05-07T09:31:36;5.15;;;2.90;;
14268;SDS011;7218;51.480;7.006;2023-05-07T09:34:04;9.23;;;4.05;;
14268;SDS011;7218;51.480;7.006;2023-05-07T09:36:31;23.63;;;12.00;;
14268;SDS011;7218;51.480;7.006;2023-05-07T09:38:58;10.38;;;5.10;;
14268;SDS011;7218;51.480;7.006;2023-05-07T09:41:27;11.88;;;6.18;;
14268;SDS011;7218;51.480;7.006;2023-05-07T09:43:56;4.05;;;3.65;;
14268;SDS011;7218;51.480;7.006;2023-05-07T09:46:25;16.63;;;10.50;;
14268;SDS011;7218;51.480;7.006;2023-05-07T09:48:56;45.92;;;21.88;;
14268;SDS011;7218;51.480;7.006;2023-05-07T09:51:24;11.20;;;6.32;;
14268;SDS011;7218;51.480;7.006;2023-05-07T09:53:56;6.55;;;4.60;;
14268;SDS011;7218;51.480;7.006;2023-05-07T09:56:27;6.35;;;4.07;;
14268;SDS011;7218;51.480;7.006;2023-05-07T09:58:56;5.85;;;3.70;;
14268;SDS011;7218;51.480;7.006;2023-05-07T10:01:25;3.78;;;3.03;;
14268;SDS011;7218;51.480;7.006;2023-05-07T10:03:53;5.43;;;3.30;;
14268;SDS011;7218;51.480;7.006;2023-05-07T10:06:20;4.05;;;2.90;;
14268;SDS011;7218;51.480;7.006;2023-05-07T10:08:47;4.38;;;3.20;;
14268;SDS011;7218;51.480;7.006;2023-05-07T10:11:15;4.05;;;3.60;;
14268;SDS011;7218;51.480;7.006;2023-05-07T10:13:43;5.40;;;3.97;;
14268;SDS011;7218;51.480;7.006;2023-05-07T10:16:12;13.95;;;10.95;;
14268;SDS011;7218;51.480;7.006;2023-05-07T10:18:38;5.78;;;4.22;;
14268;SDS011;7218;51.480;7.006;2023-05-07T10:21:07;13.32;;;4.88;;
14268;SDS011;7218;51.480;7.006;2023-05-07T10:23:34;4.47;;;3.20;;
14268;SDS011;7218;51.480;7.006;2023-05-07T10:26:03;7.65;;;5.90;;
14268;SDS011;7218;51.480;7.006;2023-05-07T10:28:33;4.68;;;3.38;;
14268;SDS011;7218;51.480;7.006;2023-05-07T10:31:10;5.57;;;3.70;;
14268;SDS011;7218;51.480;7.006;2023-05-07T10:33:47;4.78;;;3.00;;
14268;SDS011;7218;51.480;7.006;2023-05-07T10:36:16;3.45;;;3.08;;
14268;SDS011;7218;51.480;7.006;2023-05-07T10:38:44;8.88;;;4.60;;
14268;SDS011;7218;51.480;7.006;2023-05-07T10:41:11;7.13;;;4.85;;
14268;SDS011;7218;51.480;7.006;2023-05-07T10:43:39;7.22;;;6.03;;
14268;SDS011;7218;51.480;7.006;2023-05-07T10:46:11;10.55;;;6.57;;
14268;SDS011;7218;51.480;7.006;2023-05-07T10:51:36;12.00;;;9.07;;
14268;SDS011;7218;51.480;7.006;2023-05-07T10:54:22;15.77;;;10.43;;
14268;SDS011;7218;51.480;7.006;2023-05-07T10:56:49;9.32;;;6.70;;
14268;SDS011;7218;51.480;7.006;2023-05-07T10:59:29;24.42;;;18.50;;
14268;SDS011;7218;51.480;7.006;2023-05-07T11:01:59;9.23;;;6.45;;
14268;SDS011;7218;51.480;7.006;2023-05-07T11:04:28;9.75;;;7.32;;
14268;SDS011;7218;51.480;7.006;2023-05-07T11:09:55;2.88;;;2.40;;
14268;SDS011;7218;51.480;7.006;2023-05-07T11:15:42;15.25;;;12.30;;
14268;SDS011;7218;51.480;7.006;2023-05-07T11:18:12;3.50;;;2.42;;
14268;SDS011;7218;51.480;7.006;2023-05-07T11:20:46;3.53;;;2.50;;
14268;SDS011;7218;51.480;7.006;2023-05-07T11:26:24;12.77;;;10.68;;
14268;SDS011;7218;51.480;7.006;2023-05-07T11:28:52;13.32;;;9.93;;
14268;SDS011;7218;51.480;7.006;2023-05-07T11:31:23;17.75;;;10.75;;
14268;SDS011;7218;51.480;7.006;2023-05-07T11:33:53;10.98;;;6.95;;
14268;SDS011;7218;51.480;7.006;2023-05-07T11:36:21;2.50;;;2.30;;
14268;SDS011;7218;51.480;7.006;2023-05-07T11:38:48;3.50;;;2.22;;
14268;SDS011;7218;51.480;7.006;2023-05-07T11:41:15;2.83;;;2.50;;
14268;SDS011;7218;51.480;7.006;2023-05-07T11:43:54;4.60;;;4.03;;
14268;SDS011;7218;51.480;7.006;2023-05-07T11:46:22;4.03;;;3.45;;
14268;SDS011;7218;51.480;7.006;2023-05-07T11:48:48;4.72;;;3.10;;
14268;SDS011;7218;51.480;7.006;2023-05-07T11:51:19;13.32;;;10.73;;
14268;SDS011;7218;51.480;7.006;2023-05-07T11:53:46;4.43;;;4.03;;
14268;SDS011;7218;51.480;7.006;2023-05-07T11:56:14;4.20;;;3.20;;
14268;SDS011;7218;51.480;7.006;2023-05-07T11:58:42;5.30;;;4.70;;
14268;SDS011;7218;51.480;7.006;2023-05-07T12:01:09;15.43;;;13.15;;
14268;SDS011;7218;51.480;7.006;2023-05-07T12:03:37;5.80;;;4.38;;
14268;SDS011;7218;51.480;7.006;2023-05-07T12:06:07;4.10;;;2.38;;
14268;SDS011;7218;51.480;7.006;2023-05-07T12:08:37;6.40;;;4.03;;
14268;SDS011;7218;51.480;7.006;2023-05-07T12:11:06;25.45;;;21.90;;
14268;SDS011;7218;51.480;7.006;2023-05-07T12:13:34;11.10;;;6.70;;
14268;SDS011;7218;51.480;7.006;2023-05-07T12:16:01;4.90;;;3.70;;
14268;SDS011;7218;51.480;7.006;2023-05-07T12:18:29;6.10;;;5.45;;
14268;SDS011;7218;51.480;7.006;2023-05-07T12:20:56;15.30;;;12.75;;
14268;SDS011;7218;51.480;7.006;2023-05-07T12:23:23;16.42;;;9.65;;
14268;SDS011;7218;51.480;7.006;2023-05-07T12:25:51;7.10;;;5.53;;
14268;SDS011;7218;51.480;7.006;2023-05-07T12:28:17;7.68;;;5.47;;
14268;SDS011;7218;51.480;7.006;2023-05-07T12:30:47;15.52;;;11.93;;
14268;SDS011;7218;51.480;7.006;2023-05-07T12:33:15;9.85;;;7.55;;
14268;SDS011;7218;51.480;7.006;2023-05-07T12:35:43;15.57;;;12.32;;
14268;SDS011;7218;51.480;7.006;2023-05-07T12:38:10;5.70;;;3.88;;
14268;SDS011;7218;51.480;7.006;2023-05-07T12:40:39;11.60;;;8.48;;
14268;SDS011;7218;51.480;7.006;2023-05-07T12:43:07;9.48;;;8.30;;
14268;SDS011;7218;51.480;7.006;2023-05-07T12:45:37;3.58;;;2.88;;
14268;SDS011;7218;51.480;7.006;2023-05-07T12:48:04;3.53;;;2.97;;
14268;SDS011;7218;51.480;7.006;2023-05-07T12:50:31;9.10;;;6.45;;
14268;SDS011;7218;51.480;7.006;2023-05-07T12:52:59;32.13;;;19.67;;
14268;SDS011;7218;51.480;7.006;2023-05-07T12:55:28;17.10;;;11.80;;
14268;SDS011;7218;51.480;7.006;2023-05-07T12:57:55;24.08;;;20.02;;
14268;SDS011;7218;51.480;7.006;2023-05-07T13:00:36;6.95;;;5.50;;
14268;SDS011;7218;51.480;7.006;2023-05-07T13:03:03;18.63;;;14.23;;
14268;SDS011;7218;51.480;7.006;2023-05-07T13:05:31;9.88;;;6.53;;
14268;SDS011;7218;51.480;7.006;2023-05-07T13:07:57;8.88;;;7.95;;
14268;SDS011;7218;51.480;7.006;2023-05-07T13:10:24;6.75;;;5.05;;
14268;SDS011;7218;51.480;7.006;2023-05-07T13:12:51;10.00;;;6.57;;
14268;SDS011;7218;51.480;7.006;2023-05-07T13:15:18;9.18;;;7.43;;
14268;SDS011;7218;51.480;7.006;2023-05-07T13:17:46;4.35;;;3.95;;
14268;SDS011;7218;51.480;7.006;2023-05-07T13:20:13;7.00;;;4.95;;
14268;SDS011;7218;51.480;7.006;2023-05-07T13:22:40;4.32;;;3.40;;
14268;SDS011;7218;51.480;7.006;2023-05-07T13:25:07;4.45;;;3.97;;
14268;SDS011;7218;51.480;7.006;2023-05-07T13:27:34;5.90;;;3.80;;
14268;SDS011;7218;51.480;7.006;2023-05-07T13:30:02;4.60;;;3.58;;
14268;SDS011;7218;51.480;7.006;2023-05-07T13:32:29;5.18;;;4.10;;
14268;SDS011;7218;51.480;7.006;2023-05-07T13:34:57;4.47;;;3.67;;
14268;SDS011;7218;51.480;7.006;2023-05-07T13:37:24;5.60;;;3.47;;
14268;SDS011;7218;51.480;7.006;2023-05-07T13:39:50;4.80;;;4.05;;
14268;SDS011;7218;51.480;7.006;2023-05-07T13:42:17;4.60;;;4.20;;
14268;SDS011;7218;51.480;7.006;2023-05-07T13:44:44;4.32;;;3.33;;
14268;SDS011;7218;51.480;7.006;2023-05-07T13:47:11;3.72;;;2.97;;
14268;SDS011;7218;51.480;7.006;2023-05-07T13:49:37;3.42;;;3.13;;
14268;SDS011;7218;51.480;7.006;2023-05-07T13:52:06;4.03;;;2.85;;
14268;SDS011;7218;51.480;7.006;2023-05-07T13:54:32;4.20;;;3.15;;
14268;SDS011;7218;51.480;7.006;2023-05-07T13:56:59;11.88;;;5.13;;
14268;SDS011;7218;51.480;7.006;2023-05-07T13:59:26;23.38;;;6.90;;
14268;SDS011;7218;51.480;7.006;2023-05-07T14:01:53;12.38;;;6.15;;
14268;SDS011;7218;51.480;7.006;2023-05-07T14:04:20;17.60;;;7.80;;
14268;SDS011;7218;51.480;7.006;2023-05-07T14:06:46;11.88;;;6.88;;
14268;SDS011;7218;51.480;7.006;2023-05-07T14:09:14;12.20;;;6.97;;
14268;SDS011;7218;51.480;7.006;2023-05-07T14:11:41;9.32;;;6.43;;
14268;SDS011;7218;51.480;7.006;2023-05-07T14:14:07;11.35;;;6.55;;
14268;SDS011;7218;51.480;7.006;2023-05-07T14:16:35;11.10;;;7.22;;
14268;SDS011;7218;51.480;7.006;2023-05-07T14:19:02;9.48;;;7.32;;
14268;SDS011;7218;51.480;7.006;2023-05-07T14:21:28;10.88;;;7.07;;
14268;SDS011;7218;51.480;7.006;2023-05-07T14:23:55;11.82;;;7.95;;
14268;SDS011;7218;51.480;7.006;2023-05-07T14:26:23;16.05;;;9.48;;
14268;SDS011;7218;51.480;7.006;2023-05-07T14:28:52;14.60;;;11.27;;
14268;SDS011;7218;51.480;7.006;2023-05-07T14:31:19;15.65;;;11.02;;
14268;SDS011;7218;51.480;7.006;2023-05-07T14:33:46;16.48;;;10.77;;
14268;SDS011;7218;51.480;7.006;2023-05-07T14:36:14;14.60;;;11.10;;
14268;SDS011;7218;51.480;7.006;2023-05-07T14:38:41;12.50;;;10.65;;
14268;SDS011;7218;51.480;7.006;2023-05-07T14:41:07;15.80;;;11.80;;
14268;SDS011;7218;51.480;7.006;2023-05-07T14:43:35;15.27;;;10.65;;
14268;SDS011;7218;51.480;7.006;2023-05-07T14:46:01;14.82;;;12.25;;
14268;SDS011;7218;51.480;7.006;2023-05-07T14:48:28;12.02;;;10.43;;
14268;SDS011;7218;51.480;7.006;2023-05-07T14:50:54;12.05;;;10.13;;
14268;SDS011;7218;51.480;7.006;2023-05-07T14:53:21;10.20;;;8.88;;
14268;SDS011;7218;51.480;7.006;2023-05-07T14:55:47;9.43;;;8.43;;
14268;SDS011;7218;51.480;7.006;2023-05-07T14:58:14;9.40;;;7.90;;
14268;SDS011;7218;51.480;7.006;2023-05-07T15:00:42;8.35;;;7.53;;